sensor_id;sensor_type;location;lat;lon;timestamp;temperature;humidity
41220;DHT22;26951;47.338;9.196;2024-03-08T00:00:45;-0.10;63.40
41220;DHT22;26951;47.338;9.196;2024-03-08T00:03:29;-0.10;61.90
41220;DHT22;26951;47.338;9.196;2024-03-08T00:06:14;-0.10;62.40
41220;DHT22;26951;47.338;9.196;2024-03-08T00:08:59;-0.20;61.90
41220;DHT22;26951;47.338;9.196;2024-03-08T00:11:44;-0.30;61.90
41220;DHT22;26951;47.338;9.196;2024-03-08T00:14:28;-0.30;62.10
41220;DHT22;26951;47.338;9.196;2024-03-08T00:17:12;-0.30;62.60
41220;DHT22;26951;47.338;9.196;2024-03-08T00:19:56;-0.30;61.60
41220;DHT22;26951;47.338;9.196;2024-03-08T00:22:41;-0.30;61.50
41220;DHT22;26951;47.338;9.196;2024-03-08T00:25:26;-0.30;61.20
41220;DHT22;26951;47.338;9.196;2024-03-08T00:28:10;-0.30;61.10
41220;DHT22;26951;47.338;9.196;2024-03-08T00:30:57;-0.30;61.70
41220;DHT22;26951;47.338;9.196;2024-03-08T00:33:41;-0.40;61.00
41220;DHT22;26951;47.338;9.196;2024-03-08T00:36:25;-0.40;61.60
41220;DHT22;26951;47.338;9.196;2024-03-08T00:39:09;-0.50;62.60
41220;DHT22;26951;47.338;9.196;2024-03-08T00:41:53;-0.40;63.60
41220;DHT22;26951;47.338;9.196;2024-03-08T00:44:37;-0.40;64.00
41220;DHT22;26951;47.338;9.196;2024-03-08T00:47:21;-0.40;64.20
41220;DHT22;26951;47.338;9.196;2024-03-08T00:50:06;-0.40;63.50
41220;DHT22;26951;47.338;9.196;2024-03-08T00:52:50;-0.40;63.00
41220;DHT22;26951;47.338;9.196;2024-03-08T00:55:35;-0.40;63.00
41220;DHT22;26951;47.338;9.196;2024-03-08T00:58:18;-0.50;63.20
41220;DHT22;26951;47.338;9.196;2024-03-08T01:01:03;-0.50;63.50
41220;DHT22;26951;47.338;9.196;2024-03-08T01:03:48;-0.60;63.60
41220;DHT22;26951;47.338;9.196;2024-03-08T01:06:33;-0.50;64.00
41220;DHT22;26951;47.338;9.196;2024-03-08T01:09:17;-0.50;64.00
41220;DHT22;26951;47.338;9.196;2024-03-08T01:12:01;-0.50;64.10
41220;DHT22;26951;47.338;9.196;2024-03-08T01:14:45;-0.50;63.20
41220;DHT22;26951;47.338;9.196;2024-03-08T01:17:29;-0.50;62.60
41220;DHT22;26951;47.338;9.196;2024-03-08T01:20:14;-0.50;62.30
41220;DHT22;26951;47.338;9.196;2024-03-08T01:22:58;-0.50;62.60
41220;DHT22;26951;47.338;9.196;2024-03-08T01:25:42;-0.40;63.40
41220;DHT22;26951;47.338;9.196;2024-03-08T01:28:27;-0.50;63.50
41220;DHT22;26951;47.338;9.196;2024-03-08T01:31:12;-0.50;63.10
41220;DHT22;26951;47.338;9.196;2024-03-08T01:34:00;-0.50;63.10
41220;DHT22;26951;47.338;9.196;2024-03-08T01:36:44;-0.60;63.60
41220;DHT22;26951;47.338;9.196;2024-03-08T01:39:29;-0.60;64.80
41220;DHT22;26951;47.338;9.196;2024-03-08T01:42:13;-0.60;64.20
41220;DHT22;26951;47.338;9.196;2024-03-08T01:44:59;-0.60;63.10
41220;DHT22;26951;47.338;9.196;2024-03-08T01:47:44;-0.60;62.00
41220;DHT22;26951;47.338;9.196;2024-03-08T01:50:28;-0.60;62.70
41220;DHT22;26951;47.338;9.196;2024-03-08T01:53:13;-0.60;63.20
41220;DHT22;26951;47.338;9.196;2024-03-08T01:56:00;-0.60;63.50
41220;DHT22;26951;47.338;9.196;2024-03-08T01:58:46;-0.60;63.00
41220;DHT22;26951;47.338;9.196;2024-03-08T02:06:34;-0.70;62.00
41220;DHT22;26951;47.338;9.196;2024-03-08T02:09:18;-0.70;62.20
41220;DHT22;26951;47.338;9.196;2024-03-08T02:12:03;-0.80;62.30
41220;DHT22;26951;47.338;9.196;2024-03-08T02:14:47;-0.80;62.60
41220;DHT22;26951;47.338;9.196;2024-03-08T02:17:32;-0.80;62.60
41220;DHT22;26951;47.338;9.196;2024-03-08T02:20:18;-0.80;62.20
41220;DHT22;26951;47.338;9.196;2024-03-08T02:23:03;-0.80;61.40
41220;DHT22;26951;47.338;9.196;2024-03-08T02:25:48;-0.90;60.60
41220;DHT22;26951;47.338;9.196;2024-03-08T02:28:33;-0.90;59.60
41220;DHT22;26951;47.338;9.196;2024-03-08T02:31:18;-1.00;59.10
41220;DHT22;26951;47.338;9.196;2024-03-08T02:34:02;-1.10;59.10
41220;DHT22;26951;47.338;9.196;2024-03-08T02:36:46;-1.10;58.80
41220;DHT22;26951;47.338;9.196;2024-03-08T02:39:30;-1.20;58.80
41220;DHT22;26951;47.338;9.196;2024-03-08T02:42:16;-1.20;59.40
41220;DHT22;26951;47.338;9.196;2024-03-08T02:45:00;-1.30;60.20
41220;DHT22;26951;47.338;9.196;2024-03-08T02:47:44;-1.30;60.00
41220;DHT22;26951;47.338;9.196;2024-03-08T02:50:29;-1.30;59.00
41220;DHT22;26951;47.338;9.196;2024-03-08T02:53:13;-1.30;58.70
41220;DHT22;26951;47.338;9.196;2024-03-08T02:55:57;-1.40;58.10
41220;DHT22;26951;47.338;9.196;2024-03-08T02:58:41;-1.40;58.40
41220;DHT22;26951;47.338;9.196;2024-03-08T03:01:26;-1.50;58.60
41220;DHT22;26951;47.338;9.196;2024-03-08T03:04:11;-1.50;58.20
41220;DHT22;26951;47.338;9.196;2024-03-08T03:06:55;-1.50;59.00
41220;DHT22;26951;47.338;9.196;2024-03-08T03:09:39;-1.60;57.20
41220;DHT22;26951;47.338;9.196;2024-03-08T03:12:23;-1.60;57.10
41220;DHT22;26951;47.338;9.196;2024-03-08T03:15:08;-1.70;57.20
41220;DHT22;26951;47.338;9.196;2024-03-08T03:17:52;-1.70;58.50
41220;DHT22;26951;47.338;9.196;2024-03-08T03:20:36;-1.80;59.60
41220;DHT22;26951;47.338;9.196;2024-03-08T03:23:26;-1.80;59.70
41220;DHT22;26951;47.338;9.196;2024-03-08T03:26:10;-1.80;60.00
41220;DHT22;26951;47.338;9.196;2024-03-08T03:28:56;-1.80;60.50
41220;DHT22;26951;47.338;9.196;2024-03-08T03:31:41;-1.80;60.10
41220;DHT22;26951;47.338;9.196;2024-03-08T03:34:25;-1.80;59.70
41220;DHT22;26951;47.338;9.196;2024-03-08T03:37:09;-1.80;59.80
41220;DHT22;26951;47.338;9.196;2024-03-08T03:39:56;-1.80;60.70
41220;DHT22;26951;47.338;9.196;2024-03-08T03:42:41;-1.90;61.00
41220;DHT22;26951;47.338;9.196;2024-03-08T03:45:26;-1.90;60.90
41220;DHT22;26951;47.338;9.196;2024-03-08T03:48:10;-1.90;61.10
41220;DHT22;26951;47.338;9.196;2024-03-08T03:50:54;-1.90;59.40
41220;DHT22;26951;47.338;9.196;2024-03-08T03:53:39;-1.90;58.20
41220;DHT22;26951;47.338;9.196;2024-03-08T03:56:26;-2.00;57.90
41220;DHT22;26951;47.338;9.196;2024-03-08T03:59:11;-2.00;57.80
41220;DHT22;26951;47.338;9.196;2024-03-08T04:01:56;-2.00;57.90
41220;DHT22;26951;47.338;9.196;2024-03-08T04:04:40;-2.00;57.10
41220;DHT22;26951;47.338;9.196;2024-03-08T04:07:24;-2.10;57.20
41220;DHT22;26951;47.338;9.196;2024-03-08T04:10:11;-2.10;57.30
41220;DHT22;26951;47.338;9.196;2024-03-08T04:12:55;-2.20;56.40
41220;DHT22;26951;47.338;9.196;2024-03-08T04:15:41;-2.20;55.70
41220;DHT22;26951;47.338;9.196;2024-03-08T04:18:25;-2.30;55.80
41220;DHT22;26951;47.338;9.196;2024-03-08T04:21:10;-2.30;55.60
41220;DHT22;26951;47.338;9.196;2024-03-08T04:23:55;-2.40;55.00
41220;DHT22;26951;47.338;9.196;2024-03-08T04:26:39;-2.40;54.70
41220;DHT22;26951;47.338;9.196;2024-03-08T04:29:25;-2.40;54.40
41220;DHT22;26951;47.338;9.196;2024-03-08T04:32:09;-2.50;54.60
41220;DHT22;26951;47.338;9.196;2024-03-08T04:34:54;-2.50;54.30
41220;DHT22;26951;47.338;9.196;2024-03-08T04:37:38;-2.50;54.60
41220;DHT22;26951;47.338;9.196;2024-03-08T04:40:22;-2.50;54.50
41220;DHT22;26951;47.338;9.196;2024-03-08T04:43:06;-2.60;55.30
41220;DHT22;26951;47.338;9.196;2024-03-08T04:45:52;-2.60;55.90
41220;DHT22;26951;47.338;9.196;2024-03-08T04:48:36;-2.60;56.70
41220;DHT22;26951;47.338;9.196;2024-03-08T04:51:20;-2.60;57.20
41220;DHT22;26951;47.338;9.196;2024-03-08T04:54:05;-2.60;56.90
41220;DHT22;26951;47.338;9.196;2024-03-08T04:56:49;-2.60;56.80
41220;DHT22;26951;47.338;9.196;2024-03-08T04:59:33;-2.60;55.40
41220;DHT22;26951;47.338;9.196;2024-03-08T05:02:17;-2.70;56.10
41220;DHT22;26951;47.338;9.196;2024-03-08T05:05:01;-2.70;57.70
41220;DHT22;26951;47.338;9.196;2024-03-08T05:07:46;-2.70;57.60
41220;DHT22;26951;47.338;9.196;2024-03-08T05:10:30;-2.80;57.30
41220;DHT22;26951;47.338;9.196;2024-03-08T05:13:14;-2.80;57.60
41220;DHT22;26951;47.338;9.196;2024-03-08T05:15:58;-2.80;57.60
41220;DHT22;26951;47.338;9.196;2024-03-08T05:18:42;-2.80;56.30
41220;DHT22;26951;47.338;9.196;2024-03-08T05:21:26;-2.90;55.10
41220;DHT22;26951;47.338;9.196;2024-03-08T05:24:11;-2.90;55.20
41220;DHT22;26951;47.338;9.196;2024-03-08T05:26:57;-2.90;55.10
41220;DHT22;26951;47.338;9.196;2024-03-08T05:29:41;-2.90;55.90
41220;DHT22;26951;47.338;9.196;2024-03-08T05:32:25;-2.90;56.40
41220;DHT22;26951;47.338;9.196;2024-03-08T05:35:11;-2.90;56.70
41220;DHT22;26951;47.338;9.196;2024-03-08T05:37:56;-2.90;56.80
41220;DHT22;26951;47.338;9.196;2024-03-08T05:40:41;-2.90;57.10
41220;DHT22;26951;47.338;9.196;2024-03-08T05:43:27;-3.00;58.10
41220;DHT22;26951;47.338;9.196;2024-03-08T05:46:14;-3.00;59.00
41220;DHT22;26951;47.338;9.196;2024-03-08T05:48:59;-2.90;59.80
41220;DHT22;26951;47.338;9.196;2024-03-08T05:51:43;-2.90;60.00
41220;DHT22;26951;47.338;9.196;2024-03-08T05:54:27;-2.80;60.10
41220;DHT22;26951;47.338;9.196;2024-03-08T05:57:11;-2.80;59.90
41220;DHT22;26951;47.338;9.196;2024-03-08T05:59:55;-2.80;59.50
41220;DHT22;26951;47.338;9.196;2024-03-08T06:02:40;-2.80;59.30
41220;DHT22;26951;47.338;9.196;2024-03-08T06:05:24;-2.70;60.10
41220;DHT22;26951;47.338;9.196;2024-03-08T06:08:08;-2.70;60.60
41220;DHT22;26951;47.338;9.196;2024-03-08T06:10:53;-2.70;61.10
41220;DHT22;26951;47.338;9.196;2024-03-08T06:13:37;-2.60;61.50
41220;DHT22;26951;47.338;9.196;2024-03-08T06:16:21;-2.60;61.40
41220;DHT22;26951;47.338;9.196;2024-03-08T06:19:05;-2.70;61.40
41220;DHT22;26951;47.338;9.196;2024-03-08T06:21:50;-2.70;61.40
41220;DHT22;26951;47.338;9.196;2024-03-08T06:24:34;-2.60;61.40
41220;DHT22;26951;47.338;9.196;2024-03-08T06:27:21;-2.60;61.30
41220;DHT22;26951;47.338;9.196;2024-03-08T06:30:05;-2.60;60.50
41220;DHT22;26951;47.338;9.196;2024-03-08T06:32:50;-2.60;59.30
41220;DHT22;26951;47.338;9.196;2024-03-08T06:35:34;-2.60;57.80
41220;DHT22;26951;47.338;9.196;2024-03-08T06:38:21;-2.60;56.80
41220;DHT22;26951;47.338;9.196;2024-03-08T06:41:05;-2.60;56.60
41220;DHT22;26951;47.338;9.196;2024-03-08T06:43:50;-2.60;56.90
41220;DHT22;26951;47.338;9.196;2024-03-08T06:46:36;-2.60;56.90
41220;DHT22;26951;47.338;9.196;2024-03-08T06:49:19;-2.60;56.40
41220;DHT22;26951;47.338;9.196;2024-03-08T06:52:03;-2.60;56.60
41220;DHT22;26951;47.338;9.196;2024-03-08T06:54:48;-2.60;56.70
41220;DHT22;26951;47.338;9.196;2024-03-08T06:57:33;-2.60;57.30
41220;DHT22;26951;47.338;9.196;2024-03-08T07:00:18;-2.50;57.70
41220;DHT22;26951;47.338;9.196;2024-03-08T07:03:02;-2.40;58.20
41220;DHT22;26951;47.338;9.196;2024-03-08T07:05:46;-2.30;59.80
41220;DHT22;26951;47.338;9.196;2024-03-08T07:08:30;-2.20;60.60
41220;DHT22;26951;47.338;9.196;2024-03-08T07:11:15;-2.10;60.90
41220;DHT22;26951;47.338;9.196;2024-03-08T07:14:02;-1.90;61.70
41220;DHT22;26951;47.338;9.196;2024-03-08T07:16:50;-1.70;63.50
41220;DHT22;26951;47.338;9.196;2024-03-08T07:19:34;-1.40;67.80
41220;DHT22;26951;47.338;9.196;2024-03-08T07:22:18;-1.00;73.10
41220;DHT22;26951;47.338;9.196;2024-03-08T07:25:03;-0.50;73.30
41220;DHT22;26951;47.338;9.196;2024-03-08T07:28:05;-0.10;71.20
41220;DHT22;26951;47.338;9.196;2024-03-08T07:30:50;0.30;71.60
41220;DHT22;26951;47.338;9.196;2024-03-08T07:33:45;0.80;75.50
41220;DHT22;26951;47.338;9.196;2024-03-08T07:36:30;1.50;77.00
41220;DHT22;26951;47.338;9.196;2024-03-08T07:39:14;2.00;72.00
41220;DHT22;26951;47.338;9.196;2024-03-08T07:41:58;2.60;67.40
41220;DHT22;26951;47.338;9.196;2024-03-08T07:44:42;3.10;66.40
41220;DHT22;26951;47.338;9.196;2024-03-08T07:47:26;3.60;56.70
41220;DHT22;26951;47.338;9.196;2024-03-08T07:50:11;4.00;58.40
41220;DHT22;26951;47.338;9.196;2024-03-08T07:53:00;4.50;57.70
41220;DHT22;26951;47.338;9.196;2024-03-08T07:55:45;4.80;54.30
41220;DHT22;26951;47.338;9.196;2024-03-08T07:58:29;5.20;53.50
41220;DHT22;26951;47.338;9.196;2024-03-08T08:01:19;5.50;48.90
41220;DHT22;26951;47.338;9.196;2024-03-08T08:04:04;5.70;46.30
41220;DHT22;26951;47.338;9.196;2024-03-08T08:06:49;5.90;46.70
41220;DHT22;26951;47.338;9.196;2024-03-08T08:09:34;6.10;47.30
41220;DHT22;26951;47.338;9.196;2024-03-08T08:12:18;6.30;47.30
41220;DHT22;26951;47.338;9.196;2024-03-08T08:15:03;6.40;45.20
41220;DHT22;26951;47.338;9.196;2024-03-08T08:17:47;6.60;43.70
41220;DHT22;26951;47.338;9.196;2024-03-08T08:20:31;6.90;46.40
41220;DHT22;26951;47.338;9.196;2024-03-08T08:23:15;7.20;43.80
41220;DHT22;26951;47.338;9.196;2024-03-08T08:26:00;7.40;42.40
41220;DHT22;26951;47.338;9.196;2024-03-08T08:28:47;7.60;41.30
41220;DHT22;26951;47.338;9.196;2024-03-08T08:31:32;7.80;42.00
41220;DHT22;26951;47.338;9.196;2024-03-08T08:34:17;8.10;40.00
41220;DHT22;26951;47.338;9.196;2024-03-08T08:37:03;8.30;39.40
41220;DHT22;26951;47.338;9.196;2024-03-08T08:39:47;8.40;38.80
41220;DHT22;26951;47.338;9.196;2024-03-08T08:42:33;8.50;38.20
41220;DHT22;26951;47.338;9.196;2024-03-08T08:45:18;8.50;35.30
41220;DHT22;26951;47.338;9.196;2024-03-08T08:48:02;8.30;33.40
41220;DHT22;26951;47.338;9.196;2024-03-08T08:50:46;8.20;33.90
41220;DHT22;26951;47.338;9.196;2024-03-08T08:53:30;8.00;34.70
41220;DHT22;26951;47.338;9.196;2024-03-08T08:56:15;7.80;34.60
41220;DHT22;26951;47.338;9.196;2024-03-08T08:58:59;7.80;36.30
41220;DHT22;26951;47.338;9.196;2024-03-08T09:01:43;7.80;34.90
41220;DHT22;26951;47.338;9.196;2024-03-08T09:04:27;7.70;35.50
41220;DHT22;26951;47.338;9.196;2024-03-08T09:07:13;7.70;38.60
41220;DHT22;26951;47.338;9.196;2024-03-08T09:09:57;7.60;38.00
41220;DHT22;26951;47.338;9.196;2024-03-08T09:12:42;7.50;36.60
41220;DHT22;26951;47.338;9.196;2024-03-08T09:15:26;7.30;39.00
41220;DHT22;26951;47.338;9.196;2024-03-08T09:18:12;7.20;40.90
41220;DHT22;26951;47.338;9.196;2024-03-08T09:20:56;7.10;39.10
41220;DHT22;26951;47.338;9.196;2024-03-08T09:23:41;6.90;40.70
41220;DHT22;26951;47.338;9.196;2024-03-08T09:26:27;6.80;39.70
41220;DHT22;26951;47.338;9.196;2024-03-08T09:29:11;6.80;43.50
41220;DHT22;26951;47.338;9.196;2024-03-08T09:31:55;6.70;43.20
41220;DHT22;26951;47.338;9.196;2024-03-08T09:34:40;6.50;44.10
41220;DHT22;26951;47.338;9.196;2024-03-08T09:37:24;6.60;43.80
41220;DHT22;26951;47.338;9.196;2024-03-08T09:40:08;6.70;43.80
41220;DHT22;26951;47.338;9.196;2024-03-08T09:42:59;6.70;43.60
41220;DHT22;26951;47.338;9.196;2024-03-08T09:45:45;6.90;45.50
41220;DHT22;26951;47.338;9.196;2024-03-08T09:48:30;7.10;44.50
41220;DHT22;26951;47.338;9.196;2024-03-08T09:51:15;7.20;45.50
41220;DHT22;26951;47.338;9.196;2024-03-08T09:53:59;7.50;45.10
41220;DHT22;26951;47.338;9.196;2024-03-08T09:56:45;7.70;42.60
41220;DHT22;26951;47.338;9.196;2024-03-08T09:59:30;8.00;44.60
41220;DHT22;26951;47.338;9.196;2024-03-08T10:02:20;8.40;42.70
41220;DHT22;26951;47.338;9.196;2024-03-08T10:05:05;8.60;40.50
41220;DHT22;26951;47.338;9.196;2024-03-08T10:07:49;8.80;41.40
41220;DHT22;26951;47.338;9.196;2024-03-08T10:10:37;8.90;40.90
41220;DHT22;26951;47.338;9.196;2024-03-08T10:13:25;8.90;40.70
41220;DHT22;26951;47.338;9.196;2024-03-08T10:16:11;8.90;41.80
41220;DHT22;26951;47.338;9.196;2024-03-08T10:18:57;9.10;40.60
41220;DHT22;26951;47.338;9.196;2024-03-08T10:21:48;9.30;40.80
41220;DHT22;26951;47.338;9.196;2024-03-08T10:24:33;9.50;39.60
41220;DHT22;26951;47.338;9.196;2024-03-08T10:27:18;9.50;36.20
41220;DHT22;26951;47.338;9.196;2024-03-08T10:30:04;9.50;39.30
41220;DHT22;26951;47.338;9.196;2024-03-08T10:32:49;9.50;40.00
41220;DHT22;26951;47.338;9.196;2024-03-08T10:35:33;9.60;40.30
41220;DHT22;26951;47.338;9.196;2024-03-08T10:38:20;9.60;39.40
41220;DHT22;26951;47.338;9.196;2024-03-08T10:41:07;9.50;39.70
41220;DHT22;26951;47.338;9.196;2024-03-08T10:47:13;9.40;36.90
41220;DHT22;26951;47.338;9.196;2024-03-08T10:50:20;9.30;38.80
41220;DHT22;26951;47.338;9.196;2024-03-08T10:53:10;9.30;41.00
41220;DHT22;26951;47.338;9.196;2024-03-08T10:55:58;9.40;37.30
41220;DHT22;26951;47.338;9.196;2024-03-08T10:58:42;9.30;36.80
41220;DHT22;26951;47.338;9.196;2024-03-08T11:01:28;9.30;37.80
41220;DHT22;26951;47.338;9.196;2024-03-08T11:04:13;9.20;39.70
41220;DHT22;26951;47.338;9.196;2024-03-08T11:07:12;9.20;39.60
41220;DHT22;26951;47.338;9.196;2024-03-08T11:10:04;9.30;40.80
41220;DHT22;26951;47.338;9.196;2024-03-08T11:12:49;9.30;40.90
41220;DHT22;26951;47.338;9.196;2024-03-08T11:15:33;9.40;40.30
41220;DHT22;26951;47.338;9.196;2024-03-08T11:18:18;9.60;41.90
41220;DHT22;26951;47.338;9.196;2024-03-08T11:21:12;9.90;39.30
41220;DHT22;26951;47.338;9.196;2024-03-08T11:24:12;10.00;37.50
41220;DHT22;26951;47.338;9.196;2024-03-08T11:26:57;9.90;39.30
41220;DHT22;26951;47.338;9.196;2024-03-08T11:29:44;10.10;38.90
41220;DHT22;26951;47.338;9.196;2024-03-08T11:32:29;10.40;36.50
41220;DHT22;26951;47.338;9.196;2024-03-08T11:35:21;10.40;36.20
41220;DHT22;26951;47.338;9.196;2024-03-08T11:38:08;10.40;37.20
41220;DHT22;26951;47.338;9.196;2024-03-08T11:40:53;10.40;37.00
41220;DHT22;26951;47.338;9.196;2024-03-08T11:43:37;10.40;37.10
41220;DHT22;26951;47.338;9.196;2024-03-08T11:46:24;10.40;36.50
41220;DHT22;26951;47.338;9.196;2024-03-08T11:49:12;10.30;37.50
41220;DHT22;26951;47.338;9.196;2024-03-08T11:51:56;10.30;37.10
41220;DHT22;26951;47.338;9.196;2024-03-08T11:54:43;10.20;37.70
41220;DHT22;26951;47.338;9.196;2024-03-08T11:57:27;10.10;37.00
41220;DHT22;26951;47.338;9.196;2024-03-08T12:00:16;10.10;37.20
41220;DHT22;26951;47.338;9.196;2024-03-08T12:03:08;9.90;38.90
41220;DHT22;26951;47.338;9.196;2024-03-08T12:05:59;9.70;39.50
41220;DHT22;26951;47.338;9.196;2024-03-08T12:08:43;9.50;40.30
41220;DHT22;26951;47.338;9.196;2024-03-08T12:11:27;9.50;39.60
41220;DHT22;26951;47.338;9.196;2024-03-08T12:14:12;9.50;41.00
41220;DHT22;26951;47.338;9.196;2024-03-08T12:16:56;9.50;40.90
41220;DHT22;26951;47.338;9.196;2024-03-08T12:19:45;9.60;41.20
41220;DHT22;26951;47.338;9.196;2024-03-08T12:22:30;9.60;41.00
41220;DHT22;26951;47.338;9.196;2024-03-08T12:25:15;9.50;40.00
41220;DHT22;26951;47.338;9.196;2024-03-08T12:28:10;9.40;40.60
41220;DHT22;26951;47.338;9.196;2024-03-08T12:30:56;9.30;40.80
41220;DHT22;26951;47.338;9.196;2024-03-08T12:33:56;9.20;40.90
41220;DHT22;26951;47.338;9.196;2024-03-08T12:36:47;9.00;41.30
41220;DHT22;26951;47.338;9.196;2024-03-08T12:39:31;8.80;42.20
41220;DHT22;26951;47.338;9.196;2024-03-08T12:42:15;8.70;43.00
41220;DHT22;26951;47.338;9.196;2024-03-08T12:45:08;8.60;43.40
41220;DHT22;26951;47.338;9.196;2024-03-08T12:47:55;8.40;43.10
41220;DHT22;26951;47.338;9.196;2024-03-08T12:50:39;8.20;44.10
41220;DHT22;26951;47.338;9.196;2024-03-08T12:53:23;8.10;45.80
41220;DHT22;26951;47.338;9.196;2024-03-08T12:56:08;8.10;45.60
41220;DHT22;26951;47.338;9.196;2024-03-08T12:58:53;8.10;45.00
41220;DHT22;26951;47.338;9.196;2024-03-08T13:01:37;8.10;45.30
41220;DHT22;26951;47.338;9.196;2024-03-08T13:04:21;8.10;46.40
41220;DHT22;26951;47.338;9.196;2024-03-08T13:07:05;8.20;45.30
41220;DHT22;26951;47.338;9.196;2024-03-08T13:09:49;8.20;45.40
41220;DHT22;26951;47.338;9.196;2024-03-08T13:12:33;8.20;44.80
41220;DHT22;26951;47.338;9.196;2024-03-08T13:15:21;8.30;44.90
41220;DHT22;26951;47.338;9.196;2024-03-08T13:18:06;8.30;44.70
41220;DHT22;26951;47.338;9.196;2024-03-08T13:20:56;8.30;44.70
41220;DHT22;26951;47.338;9.196;2024-03-08T13:23:42;8.30;46.00
41220;DHT22;26951;47.338;9.196;2024-03-08T13:26:29;8.30;45.60
41220;DHT22;26951;47.338;9.196;2024-03-08T13:29:16;8.40;45.70
41220;DHT22;26951;47.338;9.196;2024-03-08T13:32:02;8.50;45.20
41220;DHT22;26951;47.338;9.196;2024-03-08T13:34:47;8.60;46.00
41220;DHT22;26951;47.338;9.196;2024-03-08T13:37:31;8.60;45.10
41220;DHT22;26951;47.338;9.196;2024-03-08T13:40:17;8.60;44.20
41220;DHT22;26951;47.338;9.196;2024-03-08T13:43:04;8.50;44.50
41220;DHT22;26951;47.338;9.196;2024-03-08T13:45:49;8.40;44.70
41220;DHT22;26951;47.338;9.196;2024-03-08T13:48:34;8.40;44.50
41220;DHT22;26951;47.338;9.196;2024-03-08T13:51:18;8.30;44.80
41220;DHT22;26951;47.338;9.196;2024-03-08T13:54:04;8.30;45.40
41220;DHT22;26951;47.338;9.196;2024-03-08T13:56:51;8.30;44.90
41220;DHT22;26951;47.338;9.196;2024-03-08T13:59:48;8.30;44.90
41220;DHT22;26951;47.338;9.196;2024-03-08T14:02:35;8.20;45.90
41220;DHT22;26951;47.338;9.196;2024-03-08T14:05:19;8.20;45.60
41220;DHT22;26951;47.338;9.196;2024-03-08T14:08:03;8.20;46.20
41220;DHT22;26951;47.338;9.196;2024-03-08T14:10:48;8.10;46.50
41220;DHT22;26951;47.338;9.196;2024-03-08T14:13:34;8.00;46.90
41220;DHT22;26951;47.338;9.196;2024-03-08T14:16:18;7.90;47.70
41220;DHT22;26951;47.338;9.196;2024-03-08T14:19:02;7.80;48.10
41220;DHT22;26951;47.338;9.196;2024-03-08T14:21:49;7.80;49.00
41220;DHT22;26951;47.338;9.196;2024-03-08T14:24:35;7.70;49.10
41220;DHT22;26951;47.338;9.196;2024-03-08T14:27:19;7.70;48.20
41220;DHT22;26951;47.338;9.196;2024-03-08T14:30:03;7.80;48.90
41220;DHT22;26951;47.338;9.196;2024-03-08T14:32:48;7.80;49.50
41220;DHT22;26951;47.338;9.196;2024-03-08T14:35:32;7.90;48.80
41220;DHT22;26951;47.338;9.196;2024-03-08T14:38:16;7.90;48.70
41220;DHT22;26951;47.338;9.196;2024-03-08T14:41:02;8.00;48.20
41220;DHT22;26951;47.338;9.196;2024-03-08T14:43:48;8.00;48.70
41220;DHT22;26951;47.338;9.196;2024-03-08T14:46:32;8.00;48.80
41220;DHT22;26951;47.338;9.196;2024-03-08T14:49:17;8.10;48.90
41220;DHT22;26951;47.338;9.196;2024-03-08T14:52:03;8.10;47.50
41220;DHT22;26951;47.338;9.196;2024-03-08T14:54:51;8.10;46.40
41220;DHT22;26951;47.338;9.196;2024-03-08T14:57:35;8.10;46.90
41220;DHT22;26951;47.338;9.196;2024-03-08T15:00:20;8.00;46.90
41220;DHT22;26951;47.338;9.196;2024-03-08T15:03:19;8.00;46.90
41220;DHT22;26951;47.338;9.196;2024-03-08T15:06:04;7.90;46.80
41220;DHT22;26951;47.338;9.196;2024-03-08T15:08:52;8.00;47.20
41220;DHT22;26951;47.338;9.196;2024-03-08T15:11:36;8.10;47.80
41220;DHT22;26951;47.338;9.196;2024-03-08T15:14:21;8.10;46.00
41220;DHT22;26951;47.338;9.196;2024-03-08T15:17:05;8.10;45.70
41220;DHT22;26951;47.338;9.196;2024-03-08T15:19:54;8.10;45.90
41220;DHT22;26951;47.338;9.196;2024-03-08T15:22:38;8.00;45.70
41220;DHT22;26951;47.338;9.196;2024-03-08T15:25:23;8.00;46.10
41220;DHT22;26951;47.338;9.196;2024-03-08T15:28:11;8.00;45.70
41220;DHT22;26951;47.338;9.196;2024-03-08T15:31:06;7.90;45.80
41220;DHT22;26951;47.338;9.196;2024-03-08T15:33:51;7.80;46.00
41220;DHT22;26951;47.338;9.196;2024-03-08T15:36:50;7.60;46.80
41220;DHT22;26951;47.338;9.196;2024-03-08T15:39:35;7.50;47.00
41220;DHT22;26951;47.338;9.196;2024-03-08T15:42:22;7.40;47.40
41220;DHT22;26951;47.338;9.196;2024-03-08T15:45:06;7.40;47.60
41220;DHT22;26951;47.338;9.196;2024-03-08T15:47:53;7.30;47.50
41220;DHT22;26951;47.338;9.196;2024-03-08T15:50:43;7.20;47.90
41220;DHT22;26951;47.338;9.196;2024-03-08T15:53:32;7.10;48.40
41220;DHT22;26951;47.338;9.196;2024-03-08T15:56:20;7.00;48.90
41220;DHT22;26951;47.338;9.196;2024-03-08T15:59:05;6.90;49.20
41220;DHT22;26951;47.338;9.196;2024-03-08T16:01:50;6.80;49.40
41220;DHT22;26951;47.338;9.196;2024-03-08T16:04:35;6.70;49.60
41220;DHT22;26951;47.338;9.196;2024-03-08T16:07:19;6.70;49.70
41220;DHT22;26951;47.338;9.196;2024-03-08T16:10:04;6.60;50.40
41220;DHT22;26951;47.338;9.196;2024-03-08T16:12:50;6.50;50.40
41220;DHT22;26951;47.338;9.196;2024-03-08T16:15:34;6.40;49.80
41220;DHT22;26951;47.338;9.196;2024-03-08T16:18:19;6.40;49.70
41220;DHT22;26951;47.338;9.196;2024-03-08T16:21:05;6.30;49.80
41220;DHT22;26951;47.338;9.196;2024-03-08T16:23:50;6.20;50.10
41220;DHT22;26951;47.338;9.196;2024-03-08T16:26:36;6.10;50.20
41220;DHT22;26951;47.338;9.196;2024-03-08T16:29:20;5.90;51.30
41220;DHT22;26951;47.338;9.196;2024-03-08T16:32:05;5.80;51.60
41220;DHT22;26951;47.338;9.196;2024-03-08T16:34:49;5.70;51.40
41220;DHT22;26951;47.338;9.196;2024-03-08T16:37:35;5.70;52.10
41220;DHT22;26951;47.338;9.196;2024-03-08T16:40:20;5.50;52.60
41220;DHT22;26951;47.338;9.196;2024-03-08T16:43:04;5.50;52.80
41220;DHT22;26951;47.338;9.196;2024-03-08T16:45:49;5.40;52.20
41220;DHT22;26951;47.338;9.196;2024-03-08T16:48:34;5.20;51.70
41220;DHT22;26951;47.338;9.196;2024-03-08T16:51:20;5.10;51.20
41220;DHT22;26951;47.338;9.196;2024-03-08T16:54:04;5.00;50.10
41220;DHT22;26951;47.338;9.196;2024-03-08T16:56:48;4.90;50.70
41220;DHT22;26951;47.338;9.196;2024-03-08T16:59:33;4.80;50.80
41220;DHT22;26951;47.338;9.196;2024-03-08T17:02:17;4.70;50.50
41220;DHT22;26951;47.338;9.196;2024-03-08T17:05:15;4.50;51.40
41220;DHT22;26951;47.338;9.196;2024-03-08T17:08:02;4.40;51.70
41220;DHT22;26951;47.338;9.196;2024-03-08T17:10:48;4.30;51.80
41220;DHT22;26951;47.338;9.196;2024-03-08T17:13:32;4.20;52.50
41220;DHT22;26951;47.338;9.196;2024-03-08T17:16:16;4.10;52.40
41220;DHT22;26951;47.338;9.196;2024-03-08T17:19:01;4.00;52.40
41220;DHT22;26951;47.338;9.196;2024-03-08T17:21:46;3.90;52.40
41220;DHT22;26951;47.338;9.196;2024-03-08T17:24:37;3.80;53.30
41220;DHT22;26951;47.338;9.196;2024-03-08T17:27:22;3.70;53.00
41220;DHT22;26951;47.338;9.196;2024-03-08T17:30:08;3.70;54.40
41220;DHT22;26951;47.338;9.196;2024-03-08T17:33:04;3.50;55.40
41220;DHT22;26951;47.338;9.196;2024-03-08T17:35:52;3.40;55.90
41220;DHT22;26951;47.338;9.196;2024-03-08T17:38:37;3.40;56.60
41220;DHT22;26951;47.338;9.196;2024-03-08T17:41:27;3.40;56.90
41220;DHT22;26951;47.338;9.196;2024-03-08T17:44:11;3.40;57.20